Air Navigation Services of Czech Republic  
Last data update:  04.03.2024 11:46:52 UTC česká verze
   METEO Page displayed:  04.03.2024 11:47:00 UTC  
vysvětlivky
METAR EDAC 041120Z 33004KT 280V040 0450 R22/1600U FG BKN002 OVC004 05/05 Q1009=
METAR EDDB 041120Z AUTO 03009KT 350V060 9999 FEW017 11/07 Q1010 NOSIG=
METAR EDDC 041120Z AUTO 34005KT 310V030 CAVOK 12/07 Q1008 NOSIG=
METAR EDDE 041120Z AUTO 30004KT 250V330 9999 FEW014 10/07 Q1009 NOSIG=
METAR EDDF 041120Z AUTO 31006KT 280V350 9999 OVC021 10/06 Q1011 NOSIG=
METAR EDDM 041120Z AUTO 26010KT 9999 OVC018 09/05 Q1009 NOSIG=
METAR EDDN 041120Z AUTO 25009KT 9999 OVC010 08/05 Q1010 NOSIG=
METAR EDDP 041120Z AUTO VRB02KT 0550 0400 R08R/0750N R08L/0900U FG OVC001 06/05 Q1009 BECMG 1500 BCFG BKN003=
METAR EDQM 041120Z 07004KT 010V140 CAVOK 10/05 Q1008=
METAR EPBY 041130Z 07013KT 040V100 9999 SCT016 07/02 Q1012=
METAR EPGD 041130Z 06012KT 9999 BKN013 04/00 Q1014=
METAR EPKK 041130Z 05008KT 9999 BKN060 12/06 Q1007=
METAR EPKT 041130Z 32003KT 290V010 9999 SCT040 14/05 Q1007=
METAR EPLB 041130Z 08010KT 9000 SCT004 OVC006 05/04 Q1011=
METAR EPLL 041130Z 06012KT 9000 OVC009 08/05 Q1009=
METAR EPMO 041130Z 07011KT 9999 BKN014 05/03 Q1012=
METAR EPPO 041130Z 08013KT 9999 SCT017 10/04 Q1010=
METAR EPRZ 041130Z 06005KT 030V100 9999 SCT043 14/08 Q1009=
METAR EPWA 041130Z 08008KT 9999 BKN018 07/03 Q1011 NOSIG=
METAR EPWR 041130Z 01006KT 340V040 9999 FEW026 13/07 Q1008=
METAR LHBP 041130Z 11006KT 070V150 CAVOK 14/06 Q1009 NOSIG=
METAR LHPR 041115Z AUTO 20009KT 160V260 CAVOK 17/05 Q1008 NOSIG=
METAR LHSM 041115Z AUTO 18006KT 130V210 CAVOK 15/05 Q1008 NOSIG=
METAR LKBC 041130Z AUTO 20003KT //// // FEW003 07/06 Q1008=
METAR LKCR 041130Z AUTO 33006KT 300V360 CAVOK 11/06 Q1007=
METAR LKCS 041130Z AUTO 36004KT 310V040 CAVOK 09/06 Q1007=
METAR LKCV 041130Z 32007KT 7000 FEW006 09/07 Q1008 NOSIG RMK WHT WHT=
METAR LKKB 041130Z 21004KT 160V300 8000 NSC 11/07 Q1008 NOSIG RMK BLU BLU=
METAR LKKU 041100Z 20009KT 9999 FEW045 15/05 Q1007=
METAR LKKV 041130Z 33004KT 290V030 9999 FEW023 12/06 Q1007=
SPECI LKLN 041139Z AUTO VRB02KT 4000 // OVC002 06/05 Q1009=
METAR LKMT 041130Z 20014KT 160V230 9999 SCT049 16/04 Q1006 NOSIG=
METAR LKNA 041130Z VRB01KT CAVOK 11/04 Q1007 NOSIG RMK BLU BLU=
METAR LKPD 041130Z 24005KT 200V280 9999 FEW023 12/07 Q1007 NOSIG RMK BLU BLU=
METAR LKPJ 041130Z AUTO 18007KT 160V230 9999 // NCD 15/05 Q1007=
METAR LKPR 041130Z VRB03KT 9999 FEW015 11/07 Q1008 NOSIG=
METAR LKTB 041130Z 21004KT 140V260 9999 FEW033 13/04 Q1007 NOSIG=
METAR LKTH 041130Z AUTO 19004KT 110V230 CAVOK 12/03 Q1007=
METAR LKVO 041100Z 27003KT 200V340 9999 FEW006 12/06 Q1008=
METAR LOWG 041120Z AUTO VRB01KT 9999 NCD 11/04 Q1008 NOSIG=
METAR LOWI 041120Z VRB02KT 9999 FEW060 13/M02 Q1007 NOSIG=
METAR LOWK 041120Z AUTO VRB01KT CAVOK 10/03 Q1009 NOSIG=
METAR LOWL 041120Z AUTO 29013KT 260V320 9999 NCD 13/05 Q1008 NOSIG=
METAR LOWS 041120Z 33014KT 9999 FEW035 12/06 Q1009 NOSIG=
METAR LOWW 041120Z 16003KT 090V240 CAVOK 16/04 Q1007 NOSIG=
METAR LOXT 041120Z 26004KT 60KM SCT300CI 15/03 Q1007 NOSIG RMK WIND INFO EST/SCT=
METAR LOXZ 041120Z VRB01KT 9999 FEW070 BKN300 11/02 Q1008 NOSIG=
METAR LZIB 041130Z 18006KT 150V210 9999 FEW035 16/05 Q1007 NOSIG=
METAR LZKZ 041130Z 21008KT 9999 FEW036 14/06 Q1010 NOSIG=
METAR LZMC 041100Z 13012KT CAVOK 16/05 Q1008=
METAR LZPP 041130Z 17010KT 140V210 9999 FEW035 16/07 Q1008=
METAR LZSL 041100Z VRB02KT CAVOK 16/07 Q1009=
METAR LZTT 041130Z 21011KT 170V240 9999 BKN046 13/03 Q1008 NOSIG=
METAR LZZI 041130Z 22010KT 180V250 9999 SCT043 17/04 Q1007=